Аэропорт: Гянджа. Гянджа

ICAO: UBBG

METAR:
2018/09/23 11:00
UBBG 231100Z 02004KT 320V070 9999 FEW035 SCT083 24/15 Q1017 R30/CLRD// NOSIG 
METAR:
2018/09/23 12:09
TAF TAF UBBG 231106Z 2312/2412 VRB02KT 6000 SCT007 BKN040 TX26/2312Z TN16/2402Z 
      TEMPO 2312/2316 08008KT 
      BECMG 2322/2324 26010KT